Time;durP1;ratioP1;P1;durP2;ratioP2;P2;SDS_P1;SDS_P2;PMS_P1;PMS_P2;Temp;Humidity;BMP_temperature;BMP_pressure;BME280_temperature;BME280_humidity;BME280_pressure;Samples;Min_cycle;Max_cycle;Signal;HPM_P1;HPM_P2
2021/10/06 06:36:12;;;;;;;5.43;1.75;;;;;;;;;;12947322;23;20075;-85
2021/10/06 06:41:41;;;;;;;5.40;1.52;;;;;;;;;;12921444;23;20088;-86
2021/10/06 06:46:43;;;;;;;3.75;1.40;;;;;;;;;;12925113;23;20012;-86
2021/10/06 07:03:08;;;;;;;5.47;1.98;;;;;;;;;;12624154;23;20010;-85
2021/10/06 07:08:22;;;;;;;3.33;1.27;;;;;;;;;;12601039;23;20041;-87
2021/10/06 07:13:40;;;;;;;3.78;1.45;;;;;;;;;;12880904;23;20403;-85
2021/10/06 07:18:41;;;;;;;;;;;;;;;;;;12912559;23;20015;-87
2021/10/06 07:23:42;;;;;;;3.85;1.33;;;;;;;;;;12916370;23;19899;-86
2021/10/06 07:28:44;;;;;;;2.38;1.27;;;;;;;;;;12916208;23;20016;-86
2021/10/06 07:33:47;;;;;;;3.95;1.50;;;;;;;;;;12916885;23;20012;-85
2021/10/06 07:38:47;;;;;;;2.85;1.23;;;;;;;;;;12920294;23;20011;-86
2021/10/06 07:43:48;;;;;;;;;;;;;;;;;;12917102;23;20000;-84
2021/10/06 07:48:50;;;;;;;2.63;1.30;;;;;;;;;;12928783;23;19899;-84
2021/10/06 07:53:51;;;;;;;3.58;1.40;;;;;;;;;;12924892;23;20031;-84
2021/10/06 07:58:52;;;;;;;;;;;;;;;;;;12952463;23;20010;-84
2021/10/06 08:03:55;;;;;;;5.68;2.13;;;;;;;;;;12955786;23;19900;-84
2021/10/06 08:08:56;;;;;;;;;;;;;;;;;;12926523;23;20081;-86
2021/10/06 08:13:57;;;;;;;4.93;1.70;;;;;;;;;;12942999;23;19903;-85
2021/10/06 08:19:08;;;;;;;;;;;;;;;;;;12917396;23;20015;-85
2021/10/06 08:24:13;;;;;;;3.17;1.48;;;;;;;;;;12916930;23;19922;-84
2021/10/06 08:29:14;;;;;;;5.07;1.73;;;;;;;;;;12892534;23;20064;-83
2021/10/06 08:34:28;;;;;;;3.95;1.20;;;;;;;;;;12912564;23;20000;-84
2021/10/06 08:39:56;;;;;;;2.33;1.17;;;;;;;;;;12912306;23;20039;-84
2021/10/06 08:44:59;;;;;;;5.50;1.52;;;;;;;;;;12936894;23;20011;-83
2021/10/06 08:50:01;;;;;;;5.55;1.35;;;;;;;;;;12889331;23;20026;-84
2021/10/06 08:55:03;;;;;;;6.45;1.50;;;;;;;;;;12891968;23;20012;-84
2021/10/06 09:00:07;;;;;;;5.40;2.05;;;;;;;;;;12918877;23;20067;-82
2021/10/06 09:05:10;;;;;;;3.88;1.60;;;;;;;;;;12922728;23;20000;-82
2021/10/06 09:10:15;;;;;;;5.18;1.70;;;;;;;;;;12924694;23;20020;-84
2021/10/06 09:15:16;;;;;;;5.40;1.77;;;;;;;;;;12915131;23;20060;-82
2021/10/06 09:20:17;;;;;;;;;;;;;;;;;;12912421;23;20070;-83
2021/10/06 09:25:18;;;;;;;4.85;2.03;;;;;;;;;;12912691;23;19900;-82
2021/10/06 09:30:18;;;;;;;;;;;;;;;;;;12911784;23;20012;-82
2021/10/06 09:35:21;;;;;;;3.50;1.60;;;;;;;;;;12918553;23;19910;-81
2021/10/06 09:40:26;;;;;;;6.40;1.88;;;;;;;;;;12943886;23;20053;-83
2021/10/06 09:45:27;;;;;;;4.10;1.83;;;;;;;;;;12913188;23;20035;-82
2021/10/06 09:50:28;;;;;;;;;;;;;;;;;;12937592;23;20004;-83
2021/10/06 09:55:33;;;;;;;5.15;1.63;;;;;;;;;;12909339;23;19899;-83
2021/10/06 10:00:35;;;;;;;3.53;1.60;;;;;;;;;;12911716;23;20409;-83
2021/10/06 10:05:36;;;;;;;4.43;1.60;;;;;;;;;;12939165;23;20425;-83
2021/10/06 10:10:39;;;;;;;5.10;1.88;;;;;;;;;;12912473;23;20008;-84
2021/10/06 10:15:41;;;;;;;2.97;1.80;;;;;;;;;;12887608;23;20004;-85
2021/10/06 10:20:44;;;;;;;6.00;2.20;;;;;;;;;;12912398;23;20012;-85
2021/10/06 10:25:46;;;;;;;3.45;1.90;;;;;;;;;;12912118;23;20050;-85
2021/10/06 10:30:56;;;;;;;2.50;1.30;;;;;;;;;;12910699;23;20016;-84
2021/10/06 10:35:57;;;;;;;5.03;1.65;;;;;;;;;;12913338;23;20344;-83
2021/10/06 10:41:03;;;;;;;;;;;;;;;;;;12910329;23;20004;-86
2021/10/06 10:57:29;;;;;;;4.47;1.40;;;;;;;;;;12939067;23;20012;-85
2021/10/06 11:02:31;;;;;;;3.25;1.60;;;;;;;;;;12915449;23;20000;-83
2021/10/06 11:07:32;;;;;;;2.42;1.52;;;;;;;;;;12915816;23;20015;-83
2021/10/06 11:13:13;;;;;;;2.70;1.42;;;;;;;;;;12917006;23;20015;-83
2021/10/06 11:18:35;;;;;;;;;;;;;;;;;;12831444;23;20032;-84
2021/10/06 11:23:36;;;;;;;2.78;1.50;;;;;;;;;;12915758;23;19888;-84
2021/10/06 11:28:44;;;;;;;3.65;1.73;;;;;;;;;;12917292;23;20035;-84
2021/10/06 11:33:45;;;;;;;4.00;2.38;;;;;;;;;;12920774;23;20031;-84
2021/10/06 11:38:46;;;;;;;;;;;;;;;;;;12917459;23;20081;-84
2021/10/06 11:44:03;;;;;;;3.65;1.80;;;;;;;;;;12915966;23;19899;-83
2021/10/06 11:49:06;;;;;;;3.28;2.15;;;;;;;;;;12916861;23;20004;-83
2021/10/06 11:54:07;;;;;;;2.45;1.65;;;;;;;;;;12916715;23;20004;-83
2021/10/06 11:59:10;;;;;;;3.22;1.90;;;;;;;;;;12945464;23;20000;-83
2021/10/06 12:09:52;;;;;;;2.97;1.88;;;;;;;;;;12942806;23;20391;-85
2021/10/06 12:14:54;;;;;;;2.40;1.90;;;;;;;;;;12909905;23;20000;-83
2021/10/06 12:20:09;;;;;;;3.25;2.70;;;;;;;;;;12909492;23;20058;-83
2021/10/06 12:25:15;;;;;;;3.15;2.00;;;;;;;;;;12936682;23;20066;-81
2021/10/06 12:30:16;;;;;;;3.45;2.00;;;;;;;;;;12907894;23;20016;-82
2021/10/06 12:35:17;;;;;;;;;;;;;;;;;;12915776;23;20012;-84
2021/10/06 12:40:37;;;;;;;3.53;2.20;;;;;;;;;;12911232;23;20034;-84
2021/10/06 12:46:09;;;;;;;3.00;2.70;;;;;;;;;;12915242;23;20004;-86
2021/10/06 12:51:11;;;;;;;3.53;1.63;;;;;;;;;;12914495;23;20015;-85
2021/10/06 12:56:23;;;;;;;6.00;2.03;;;;;;;;;;12925625;23;20004;-85
2021/10/06 13:01:24;;;;;;;3.30;1.80;;;;;;;;;;12924805;23;20087;-85
2021/10/06 13:06:26;;;;;;;4.20;2.00;;;;;;;;;;12925363;23;20000;-85
2021/10/06 13:11:27;;;;;;;3.13;2.25;;;;;;;;;;12949211;23;20004;-84
2021/10/06 13:16:28;;;;;;;4.45;2.70;;;;;;;;;;12918163;23;20001;-84
2021/10/06 13:21:29;;;;;;;3.05;2.00;;;;;;;;;;12920284;23;20004;-84
2021/10/06 13:26:30;;;;;;;;;;;;;;;;;;12917499;23;20452;-82
2021/10/06 13:31:31;;;;;;;3.25;1.95;;;;;;;;;;12923555;23;19922;-84
2021/10/06 13:36:32;;;;;;;3.20;2.20;;;;;;;;;;12925686;23;20004;-80
2021/10/06 13:41:33;;;;;;;;;;;;;;;;;;12919101;23;20432;-79
2021/10/06 13:46:35;;;;;;;3.72;1.85;;;;;;;;;;12923882;23;19910;-82
2021/10/06 13:51:36;;;;;;;3.60;1.80;;;;;;;;;;12934460;23;20004;-84
2021/10/06 13:56:37;;;;;;;3.42;1.60;;;;;;;;;;12935727;23;20080;-85
2021/10/06 14:01:43;;;;;;;4.22;2.20;;;;;;;;;;12924444;23;20008;-83
2021/10/06 14:06:44;;;;;;;3.95;1.83;;;;;;;;;;12919699;23;20007;-84
2021/10/06 14:11:45;;;;;;;2.80;1.75;;;;;;;;;;12925786;23;20016;-85
2021/10/06 14:16:46;;;;;;;4.68;2.10;;;;;;;;;;12928757;23;20000;-84
2021/10/06 14:21:47;;;;;;;3.28;1.80;;;;;;;;;;12941248;22;20711;-86
2021/10/06 14:26:48;;;;;;;4.15;1.90;;;;;;;;;;12874104;23;20027;-86
2021/10/06 14:31:49;;;;;;;4.65;1.95;;;;;;;;;;12882704;23;20001;-87
2021/10/06 14:36:50;;;;;;;2.90;2.00;;;;;;;;;;12877373;23;20104;-86
2021/10/06 14:41:51;;;;;;;4.15;2.30;;;;;;;;;;12877690;23;20016;-85
2021/10/06 14:46:52;;;;;;;4.70;2.40;;;;;;;;;;12879638;23;20001;-87
2021/10/06 14:51:56;;;;;;;4.28;2.05;;;;;;;;;;12877884;23;20007;-86
2021/10/06 14:56:58;;;;;;;7.07;2.13;;;;;;;;;;12878730;23;20060;-85
2021/10/06 15:02:01;;;;;;;4.13;1.77;;;;;;;;;;12944174;23;20000;-85
2021/10/06 15:07:02;;;;;;;5.43;2.38;;;;;;;;;;12932576;23;20000;-81
2021/10/06 15:12:03;;;;;;;4.50;2.65;;;;;;;;;;12931969;23;20008;-83
2021/10/06 15:17:04;;;;;;;4.10;2.63;;;;;;;;;;12914943;23;20380;-82
2021/10/06 15:22:05;;;;;;;4.95;2.42;;;;;;;;;;12940479;23;20012;-79
2021/10/06 15:27:06;;;;;;;3.78;2.30;;;;;;;;;;12912687;23;19996;-77
2021/10/06 15:32:07;;;;;;;6.65;2.50;;;;;;;;;;12937147;23;20333;-79
2021/10/06 15:37:08;;;;;;;3.10;2.20;;;;;;;;;;12908211;23;20003;-79
2021/10/06 15:42:10;;;;;;;4.00;2.20;;;;;;;;;;12906440;23;20428;-78
2021/10/06 15:47:11;;;;;;;3.95;2.47;;;;;;;;;;12907331;23;20008;-77
2021/10/06 15:52:12;;;;;;;4.50;2.60;;;;;;;;;;12903995;23;20004;-77
2021/10/06 15:57:13;;;;;;;4.45;2.28;;;;;;;;;;12904371;23;20000;-77
2021/10/06 16:02:15;;;;;;;4.32;2.40;;;;;;;;;;12907182;23;20034;-78
2021/10/06 16:07:16;;;;;;;3.85;3.15;;;;;;;;;;12911519;23;20000;-78
2021/10/06 16:12:16;;;;;;;5.05;2.72;;;;;;;;;;12913175;23;20024;-79
2021/10/06 16:17:17;;;;;;;4.82;2.60;;;;;;;;;;12914399;23;20000;-80
2021/10/06 16:22:18;;;;;;;7.15;2.47;;;;;;;;;;12931449;23;20008;-80
2021/10/06 16:27:20;;;;;;;6.13;3.58;;;;;;;;;;12922239;23;20000;-87
2021/10/06 16:32:31;;;;;;;6.55;3.50;;;;;;;;;;12956561;23;20008;-85
2021/10/06 16:37:32;;;;;;;6.57;3.92;;;;;;;;;;12920192;23;20008;-86
2021/10/06 16:42:33;;;;;;;;;;;;;;;;;;12920951;23;20000;-87
2021/10/06 16:53:13;;;;;;;6.07;3.40;;;;;;;;;;12900878;23;20332;-86
2021/10/06 16:58:25;;;;;;;;;;;;;;;;;;;;;
2021/10/06 17:03:26;;;;;;;;;;;;;;;;;;12939613;23;19903;-87
2021/10/06 17:08:27;;;;;;;5.05;3.30;;;;;;;;;;12920830;23;19899;-85
2021/10/06 17:13:29;;;;;;;5.95;4.47;;;;;;;;;;12920383;23;20023;-86
2021/10/06 17:18:33;;;;;;;8.38;5.45;;;;;;;;;;12925762;23;20054;-85
2021/10/06 17:23:34;;;;;;;6.88;4.68;;;;;;;;;;12928356;23;20368;-85
2021/10/06 17:28:36;;;;;;;5.53;3.90;;;;;;;;;;12914627;23;20050;-85
2021/10/06 17:33:38;;;;;;;5.40;3.58;;;;;;;;;;12913978;23;20005;-85
2021/10/06 17:38:39;;;;;;;4.80;3.15;;;;;;;;;;12910410;23;20004;-87
2021/10/06 17:43:40;;;;;;;5.82;3.88;;;;;;;;;;12914357;23;20039;-87
2021/10/06 17:48:41;;;;;;;4.32;3.45;;;;;;;;;;12914370;23;20004;-87
2021/10/06 17:53:42;;;;;;;6.85;4.53;;;;;;;;;;12904791;23;20012;-87
2021/10/06 17:58:43;;;;;;;7.35;4.30;;;;;;;;;;12932430;23;20011;-86
2021/10/06 18:03:44;;;;;;;6.85;3.63;;;;;;;;;;12935461;23;20035;-87
2021/10/06 18:08:48;;;;;;;6.05;3.50;;;;;;;;;;12935512;23;20003;-87
2021/10/06 18:13:49;;;;;;;7.40;4.53;;;;;;;;;;12905681;23;20012;-88
2021/10/06 18:18:50;;;;;;;6.00;3.38;;;;;;;;;;12905379;23;20012;-87
2021/10/06 18:23:52;;;;;;;6.22;3.95;;;;;;;;;;12907201;23;20012;-87
2021/10/06 18:28:53;;;;;;;7.43;4.70;;;;;;;;;;12906483;23;20016;-87
2021/10/06 18:33:55;;;;;;;8.40;4.10;;;;;;;;;;12903905;23;20086;-88
2021/10/06 18:38:57;;;;;;;6.80;3.88;;;;;;;;;;12905037;23;20008;-87
2021/10/06 18:43:58;;;;;;;6.75;4.45;;;;;;;;;;12903921;23;20079;-87
2021/10/06 18:48:59;;;;;;;5.95;4.18;;;;;;;;;;12904264;23;20340;-87
2021/10/06 18:54:32;;;;;;;5.78;3.75;;;;;;;;;;12930908;23;20000;-88
2021/10/06 19:05:20;;;;;;;5.63;4.10;;;;;;;;;;12949913;23;20010;-87
2021/10/06 19:16:03;;;;;;;9.52;5.45;;;;;;;;;;12939573;23;20397;-87
2021/10/06 19:21:05;;;;;;;8.73;5.57;;;;;;;;;;12919565;23;20099;-87
2021/10/06 19:26:06;;;;;;;9.65;6.13;;;;;;;;;;12890232;23;20016;-87
2021/10/06 19:31:07;;;;;;;7.80;6.07;;;;;;;;;;12910586;23;20008;-86
2021/10/06 19:36:14;;;;;;;9.90;6.43;;;;;;;;;;12904353;23;20325;-86
2021/10/06 19:41:16;;;;;;;10.25;6.80;;;;;;;;;;12906490;23;20054;-86
2021/10/06 19:46:17;;;;;;;9.50;6.65;;;;;;;;;;12929499;23;20028;-86
2021/10/06 19:51:18;;;;;;;;;;;;;;;;;;12902439;23;20429;-86
2021/10/06 19:56:20;;;;;;;13.45;6.53;;;;;;;;;;12903393;23;19899;-86
2021/10/06 20:01:21;;;;;;;11.48;6.70;;;;;;;;;;12930463;23;20001;-85
2021/10/06 20:06:23;;;;;;;8.75;5.55;;;;;;;;;;12904506;23;20004;-86
2021/10/06 20:11:27;;;;;;;10.00;6.68;;;;;;;;;;12905135;23;20007;-86
2021/10/06 20:16:28;;;;;;;9.90;6.75;;;;;;;;;;12936525;23;20000;-86
